sensor_id;sensor_type;location;lat;lon;timestamp;P1;durP1;ratioP1;P2;durP2;ratioP2
27201;SDS011;14717;46.924;15.474;2023-02-02T00:01:11;1.48;;;0.60;;
27201;SDS011;14717;46.924;15.474;2023-02-02T00:03:36;0.77;;;0.52;;
27201;SDS011;14717;46.924;15.474;2023-02-02T00:06:03;2.42;;;0.70;;
27201;SDS011;14717;46.924;15.474;2023-02-02T00:08:29;1.13;;;0.60;;
27201;SDS011;14717;46.924;15.474;2023-02-02T00:10:54;1.42;;;0.60;;
27201;SDS011;14717;46.924;15.474;2023-02-02T00:13:20;1.73;;;0.50;;
27201;SDS011;14717;46.924;15.474;2023-02-02T00:15:45;1.00;;;0.50;;
27201;SDS011;14717;46.924;15.474;2023-02-02T00:18:10;0.95;;;0.40;;
27201;SDS011;14717;46.924;15.474;2023-02-02T00:20:36;1.27;;;0.45;;
27201;SDS011;14717;46.924;15.474;2023-02-02T00:23:01;1.58;;;0.52;;
27201;SDS011;14717;46.924;15.474;2023-02-02T00:27:54;0.57;;;0.50;;
27201;SDS011;14717;46.924;15.474;2023-02-02T00:30:20;0.93;;;0.50;;
27201;SDS011;14717;46.924;15.474;2023-02-02T00:32:46;0.75;;;0.60;;
27201;SDS011;14717;46.924;15.474;2023-02-02T00:35:12;2.00;;;0.60;;
27201;SDS011;14717;46.924;15.474;2023-02-02T00:37:39;1.90;;;0.60;;
27201;SDS011;14717;46.924;15.474;2023-02-02T00:40:05;1.30;;;0.52;;
27201;SDS011;14717;46.924;15.474;2023-02-02T00:44:57;1.85;;;0.70;;
27201;SDS011;14717;46.924;15.474;2023-02-02T00:47:41;1.27;;;0.70;;
27201;SDS011;14717;46.924;15.474;2023-02-02T00:50:09;0.95;;;0.50;;
27201;SDS011;14717;46.924;15.474;2023-02-02T00:52:36;1.30;;;0.60;;
27201;SDS011;14717;46.924;15.474;2023-02-02T00:55:01;1.25;;;0.70;;
27201;SDS011;14717;46.924;15.474;2023-02-02T00:57:26;0.90;;;0.57;;
27201;SDS011;14717;46.924;15.474;2023-02-02T00:59:52;0.63;;;0.50;;
27201;SDS011;14717;46.924;15.474;2023-02-02T01:02:17;1.80;;;0.80;;
27201;SDS011;14717;46.924;15.474;2023-02-02T01:04:42;1.25;;;0.60;;
27201;SDS011;14717;46.924;15.474;2023-02-02T01:07:08;1.45;;;0.70;;
27201;SDS011;14717;46.924;15.474;2023-02-02T01:09:33;1.10;;;0.57;;
27201;SDS011;14717;46.924;15.474;2023-02-02T01:11:59;1.85;;;0.70;;
27201;SDS011;14717;46.924;15.474;2023-02-02T01:14:24;3.90;;;0.95;;
27201;SDS011;14717;46.924;15.474;2023-02-02T01:16:49;0.80;;;0.50;;
27201;SDS011;14717;46.924;15.474;2023-02-02T01:19:15;1.23;;;0.70;;
27201;SDS011;14717;46.924;15.474;2023-02-02T01:21:41;2.28;;;0.65;;
27201;SDS011;14717;46.924;15.474;2023-02-02T01:24:07;0.52;;;0.50;;
27201;SDS011;14717;46.924;15.474;2023-02-02T01:26:32;0.95;;;0.50;;
27201;SDS011;14717;46.924;15.474;2023-02-02T01:28:57;1.48;;;0.70;;
27201;SDS011;14717;46.924;15.474;2023-02-02T01:31:23;2.08;;;0.85;;
27201;SDS011;14717;46.924;15.474;2023-02-02T01:33:48;2.85;;;0.73;;
27201;SDS011;14717;46.924;15.474;2023-02-02T01:36:15;1.20;;;0.70;;
27201;SDS011;14717;46.924;15.474;2023-02-02T01:38:43;0.85;;;0.47;;
27201;SDS011;14717;46.924;15.474;2023-02-02T01:41:12;0.95;;;0.30;;
27201;SDS011;14717;46.924;15.474;2023-02-02T01:46:06;0.30;;;0.30;;
27201;SDS011;14717;46.924;15.474;2023-02-02T01:48:35;1.95;;;0.57;;
27201;SDS011;14717;46.924;15.474;2023-02-02T01:51:04;0.52;;;0.40;;
27201;SDS011;14717;46.924;15.474;2023-02-02T01:53:33;0.98;;;0.45;;
27201;SDS011;14717;46.924;15.474;2023-02-02T01:58:28;0.85;;;0.50;;
27201;SDS011;14717;46.924;15.474;2023-02-02T02:00:57;0.52;;;0.30;;
27201;SDS011;14717;46.924;15.474;2023-02-02T02:03:26;0.77;;;0.30;;
27201;SDS011;14717;46.924;15.474;2023-02-02T02:05:57;0.55;;;0.30;;
27201;SDS011;14717;46.924;15.474;2023-02-02T02:08:30;2.40;;;0.60;;
27201;SDS011;14717;46.924;15.474;2023-02-02T02:11:00;1.30;;;0.50;;
27201;SDS011;14717;46.924;15.474;2023-02-02T02:13:26;1.05;;;0.52;;
27201;SDS011;14717;46.924;15.474;2023-02-02T02:35:11;0.40;;;0.40;;
27201;SDS011;14717;46.924;15.474;2023-02-02T02:37:51;0.65;;;0.38;;
27201;SDS011;14717;46.924;15.474;2023-02-02T02:42:54;0.35;;;0.30;;
27201;SDS011;14717;46.924;15.474;2023-02-02T02:45:25;0.17;;;0.17;;
27201;SDS011;14717;46.924;15.474;2023-02-02T02:47:52;1.13;;;0.30;;
27201;SDS011;14717;46.924;15.474;2023-02-02T02:50:18;0.20;;;0.20;;
27201;SDS011;14717;46.924;15.474;2023-02-02T02:52:44;0.20;;;0.20;;
27201;SDS011;14717;46.924;15.474;2023-02-02T02:55:11;0.20;;;0.20;;
27201;SDS011;14717;46.924;15.474;2023-02-02T03:06:25;0.30;;;0.20;;
27201;SDS011;14717;46.924;15.474;2023-02-02T03:09:03;1.23;;;0.52;;
27201;SDS011;14717;46.924;15.474;2023-02-02T03:11:33;0.82;;;0.50;;
27201;SDS011;14717;46.924;15.474;2023-02-02T03:14:00;0.60;;;0.30;;
27201;SDS011;14717;46.924;15.474;2023-02-02T03:16:26;1.60;;;0.40;;
27201;SDS011;14717;46.924;15.474;2023-02-02T03:18:52;0.30;;;0.30;;
27201;SDS011;14717;46.924;15.474;2023-02-02T03:21:17;1.58;;;0.50;;
27201;SDS011;14717;46.924;15.474;2023-02-02T03:23:42;0.15;;;0.15;;
27201;SDS011;14717;46.924;15.474;2023-02-02T03:26:08;0.38;;;0.20;;
27201;SDS011;14717;46.924;15.474;2023-02-02T03:28:33;1.25;;;0.40;;
27201;SDS011;14717;46.924;15.474;2023-02-02T03:30:59;0.75;;;0.45;;
27201;SDS011;14717;46.924;15.474;2023-02-02T03:33:25;0.68;;;0.20;;
27201;SDS011;14717;46.924;15.474;2023-02-02T03:35:51;0.30;;;0.30;;
27201;SDS011;14717;46.924;15.474;2023-02-02T03:38:17;0.38;;;0.30;;
27201;SDS011;14717;46.924;15.474;2023-02-02T03:40:43;1.98;;;0.30;;
27201;SDS011;14717;46.924;15.474;2023-02-02T03:43:08;1.00;;;0.60;;
27201;SDS011;14717;46.924;15.474;2023-02-02T03:45:34;0.45;;;0.30;;
27201;SDS011;14717;46.924;15.474;2023-02-02T03:48:01;0.20;;;0.20;;
27201;SDS011;14717;46.924;15.474;2023-02-02T03:50:28;0.47;;;0.32;;
27201;SDS011;14717;46.924;15.474;2023-02-02T03:52:53;1.27;;;0.28;;
27201;SDS011;14717;46.924;15.474;2023-02-02T03:55:19;1.27;;;0.40;;
27201;SDS011;14717;46.924;15.474;2023-02-02T03:57:45;0.80;;;0.40;;
27201;SDS011;14717;46.924;15.474;2023-02-02T04:00:10;0.60;;;0.43;;
27201;SDS011;14717;46.924;15.474;2023-02-02T04:02:36;0.45;;;0.40;;
27201;SDS011;14717;46.924;15.474;2023-02-02T04:05:01;0.90;;;0.38;;
27201;SDS011;14717;46.924;15.474;2023-02-02T04:07:27;0.82;;;0.45;;
27201;SDS011;14717;46.924;15.474;2023-02-02T04:09:52;2.20;;;0.40;;
27201;SDS011;14717;46.924;15.474;2023-02-02T04:12:17;0.25;;;0.25;;
27201;SDS011;14717;46.924;15.474;2023-02-02T04:14:42;0.85;;;0.43;;
27201;SDS011;14717;46.924;15.474;2023-02-02T04:17:08;0.52;;;0.40;;
27201;SDS011;14717;46.924;15.474;2023-02-02T04:19:33;2.78;;;0.40;;
27201;SDS011;14717;46.924;15.474;2023-02-02T04:21:59;0.50;;;0.40;;
27201;SDS011;14717;46.924;15.474;2023-02-02T04:24:24;0.22;;;0.22;;
27201;SDS011;14717;46.924;15.474;2023-02-02T04:26:49;0.93;;;0.50;;
27201;SDS011;14717;46.924;15.474;2023-02-02T04:29:15;1.05;;;0.50;;
27201;SDS011;14717;46.924;15.474;2023-02-02T04:31:40;2.35;;;0.30;;
27201;SDS011;14717;46.924;15.474;2023-02-02T04:34:05;0.75;;;0.40;;
27201;SDS011;14717;46.924;15.474;2023-02-02T04:36:31;0.73;;;0.43;;
27201;SDS011;14717;46.924;15.474;2023-02-02T04:38:56;1.98;;;0.40;;
27201;SDS011;14717;46.924;15.474;2023-02-02T04:41:22;0.95;;;0.45;;
27201;SDS011;14717;46.924;15.474;2023-02-02T04:43:47;0.52;;;0.40;;
27201;SDS011;14717;46.924;15.474;2023-02-02T04:46:13;1.02;;;0.50;;
27201;SDS011;14717;46.924;15.474;2023-02-02T04:48:39;1.95;;;0.68;;
27201;SDS011;14717;46.924;15.474;2023-02-02T04:51:06;0.40;;;0.40;;
27201;SDS011;14717;46.924;15.474;2023-02-02T04:53:33;2.47;;;0.47;;
27201;SDS011;14717;46.924;15.474;2023-02-02T04:56:04;0.75;;;0.50;;
27201;SDS011;14717;46.924;15.474;2023-02-02T04:58:37;0.63;;;0.32;;
27201;SDS011;14717;46.924;15.474;2023-02-02T05:01:16;2.65;;;0.47;;
27201;SDS011;14717;46.924;15.474;2023-02-02T05:03:43;0.75;;;0.50;;
27201;SDS011;14717;46.924;15.474;2023-02-02T05:06:09;0.70;;;0.30;;
27201;SDS011;14717;46.924;15.474;2023-02-02T05:08:35;0.75;;;0.30;;
27201;SDS011;14717;46.924;15.474;2023-02-02T05:11:07;0.25;;;0.15;;
27201;SDS011;14717;46.924;15.474;2023-02-02T05:13:34;1.15;;;0.30;;
27201;SDS011;14717;46.924;15.474;2023-02-02T05:15:59;0.80;;;0.30;;
27201;SDS011;14717;46.924;15.474;2023-02-02T05:18:24;0.70;;;0.30;;
27201;SDS011;14717;46.924;15.474;2023-02-02T05:20:50;0.20;;;0.20;;
27201;SDS011;14717;46.924;15.474;2023-02-02T05:23:16;0.13;;;0.08;;
27201;SDS011;14717;46.924;15.474;2023-02-02T05:25:42;0.20;;;0.20;;
27201;SDS011;14717;46.924;15.474;2023-02-02T05:28:07;0.52;;;0.20;;
27201;SDS011;14717;46.924;15.474;2023-02-02T05:30:33;0.10;;;0.10;;
27201;SDS011;14717;46.924;15.474;2023-02-02T05:32:58;0.47;;;0.10;;
27201;SDS011;14717;46.924;15.474;2023-02-02T05:35:23;3.20;;;0.28;;
27201;SDS011;14717;46.924;15.474;2023-02-02T05:37:49;0.30;;;0.20;;
27201;SDS011;14717;46.924;15.474;2023-02-02T05:40:14;0.10;;;0.10;;
27201;SDS011;14717;46.924;15.474;2023-02-02T05:42:40;2.30;;;0.40;;
27201;SDS011;14717;46.924;15.474;2023-02-02T05:45:05;1.38;;;0.40;;
27201;SDS011;14717;46.924;15.474;2023-02-02T05:47:31;0.15;;;0.15;;
27201;SDS011;14717;46.924;15.474;2023-02-02T05:49:56;1.40;;;0.40;;
27201;SDS011;14717;46.924;15.474;2023-02-02T05:52:22;0.20;;;0.20;;
27201;SDS011;14717;46.924;15.474;2023-02-02T05:54:49;2.15;;;0.30;;
27201;SDS011;14717;46.924;15.474;2023-02-02T05:57:15;1.67;;;0.50;;
27201;SDS011;14717;46.924;15.474;2023-02-02T05:59:40;0.52;;;0.30;;
27201;SDS011;14717;46.924;15.474;2023-02-02T06:02:05;1.38;;;0.28;;
27201;SDS011;14717;46.924;15.474;2023-02-02T06:04:31;0.43;;;0.20;;
27201;SDS011;14717;46.924;15.474;2023-02-02T06:06:56;0.73;;;0.55;;
27201;SDS011;14717;46.924;15.474;2023-02-02T06:09:22;0.60;;;0.30;;
27201;SDS011;14717;46.924;15.474;2023-02-02T06:11:50;0.88;;;0.57;;
27201;SDS011;14717;46.924;15.474;2023-02-02T06:14:15;0.75;;;0.20;;
27201;SDS011;14717;46.924;15.474;2023-02-02T06:16:41;1.30;;;0.40;;
27201;SDS011;14717;46.924;15.474;2023-02-02T06:19:06;1.40;;;0.55;;
27201;SDS011;14717;46.924;15.474;2023-02-02T06:21:32;0.60;;;0.32;;
27201;SDS011;14717;46.924;15.474;2023-02-02T06:23:57;2.90;;;0.90;;
27201;SDS011;14717;46.924;15.474;2023-02-02T06:26:23;1.63;;;0.85;;
27201;SDS011;14717;46.924;15.474;2023-02-02T06:31:16;0.20;;;0.20;;
27201;SDS011;14717;46.924;15.474;2023-02-02T06:33:46;2.55;;;0.63;;
27201;SDS011;14717;46.924;15.474;2023-02-02T06:36:16;0.60;;;0.30;;
27201;SDS011;14717;46.924;15.474;2023-02-02T06:38:42;0.30;;;0.30;;
27201;SDS011;14717;46.924;15.474;2023-02-02T06:41:07;2.67;;;0.70;;
27201;SDS011;14717;46.924;15.474;2023-02-02T06:43:32;0.68;;;0.30;;
27201;SDS011;14717;46.924;15.474;2023-02-02T06:45:58;2.40;;;0.30;;
27201;SDS011;14717;46.924;15.474;2023-02-02T06:48:24;1.85;;;0.30;;
27201;SDS011;14717;46.924;15.474;2023-02-02T06:50:49;0.68;;;0.40;;
27201;SDS011;14717;46.924;15.474;2023-02-02T06:53:15;0.30;;;0.30;;
27201;SDS011;14717;46.924;15.474;2023-02-02T06:55:51;0.13;;;0.13;;
27201;SDS011;14717;46.924;15.474;2023-02-02T06:58:17;0.60;;;0.32;;
27201;SDS011;14717;46.924;15.474;2023-02-02T07:00:42;1.02;;;0.25;;
27201;SDS011;14717;46.924;15.474;2023-02-02T07:03:08;0.93;;;0.30;;
27201;SDS011;14717;46.924;15.474;2023-02-02T07:05:33;1.40;;;0.30;;
27201;SDS011;14717;46.924;15.474;2023-02-02T07:07:58;1.17;;;0.30;;
27201;SDS011;14717;46.924;15.474;2023-02-02T07:10:24;1.13;;;0.22;;
27201;SDS011;14717;46.924;15.474;2023-02-02T07:12:50;0.63;;;0.30;;
27201;SDS011;14717;46.924;15.474;2023-02-02T07:15:18;0.32;;;0.20;;
27201;SDS011;14717;46.924;15.474;2023-02-02T07:17:43;0.73;;;0.32;;
27201;SDS011;14717;46.924;15.474;2023-02-02T07:20:09;0.75;;;0.20;;
27201;SDS011;14717;46.924;15.474;2023-02-02T07:22:37;0.55;;;0.38;;
27201;SDS011;14717;46.924;15.474;2023-02-02T07:25:03;1.42;;;0.90;;
27201;SDS011;14717;46.924;15.474;2023-02-02T07:27:28;2.17;;;1.00;;
27201;SDS011;14717;46.924;15.474;2023-02-02T07:29:54;6.68;;;2.28;;
27201;SDS011;14717;46.924;15.474;2023-02-02T07:32:19;3.90;;;1.60;;
27201;SDS011;14717;46.924;15.474;2023-02-02T07:34:44;4.15;;;1.30;;
27201;SDS011;14717;46.924;15.474;2023-02-02T07:37:10;4.78;;;1.30;;
27201;SDS011;14717;46.924;15.474;2023-02-02T07:39:35;24.98;;;8.60;;
27201;SDS011;14717;46.924;15.474;2023-02-02T07:42:00;9.52;;;3.30;;
27201;SDS011;14717;46.924;15.474;2023-02-02T07:44:26;11.93;;;6.38;;
27201;SDS011;14717;46.924;15.474;2023-02-02T07:46:51;9.02;;;5.68;;
27201;SDS011;14717;46.924;15.474;2023-02-02T07:49:17;4.97;;;2.95;;
27201;SDS011;14717;46.924;15.474;2023-02-02T07:51:44;16.00;;;6.78;;
27201;SDS011;14717;46.924;15.474;2023-02-02T07:54:11;7.43;;;4.32;;
27201;SDS011;14717;46.924;15.474;2023-02-02T07:56:37;8.82;;;4.70;;
27201;SDS011;14717;46.924;15.474;2023-02-02T07:59:04;6.93;;;4.05;;
27201;SDS011;14717;46.924;15.474;2023-02-02T08:01:30;5.32;;;2.13;;
27201;SDS011;14717;46.924;15.474;2023-02-02T08:03:56;5.30;;;2.10;;
27201;SDS011;14717;46.924;15.474;2023-02-02T08:06:34;6.95;;;2.47;;
27201;SDS011;14717;46.924;15.474;2023-02-02T08:09:02;5.22;;;2.15;;
27201;SDS011;14717;46.924;15.474;2023-02-02T08:11:29;6.20;;;2.72;;
27201;SDS011;14717;46.924;15.474;2023-02-02T08:13:59;6.28;;;3.15;;
27201;SDS011;14717;46.924;15.474;2023-02-02T08:16:26;6.25;;;3.20;;
27201;SDS011;14717;46.924;15.474;2023-02-02T08:18:53;7.38;;;3.20;;
27201;SDS011;14717;46.924;15.474;2023-02-02T08:21:19;6.45;;;2.95;;
27201;SDS011;14717;46.924;15.474;2023-02-02T08:23:46;5.75;;;2.75;;
27201;SDS011;14717;46.924;15.474;2023-02-02T08:26:13;5.60;;;2.60;;
27201;SDS011;14717;46.924;15.474;2023-02-02T08:28:40;5.15;;;2.30;;
27201;SDS011;14717;46.924;15.474;2023-02-02T08:31:26;6.60;;;3.40;;
27201;SDS011;14717;46.924;15.474;2023-02-02T08:33:54;10.20;;;3.85;;
27201;SDS011;14717;46.924;15.474;2023-02-02T08:36:22;9.00;;;3.90;;
27201;SDS011;14717;46.924;15.474;2023-02-02T08:38:49;8.52;;;3.65;;
27201;SDS011;14717;46.924;15.474;2023-02-02T08:41:16;10.93;;;5.47;;
27201;SDS011;14717;46.924;15.474;2023-02-02T08:43:43;8.63;;;4.70;;
27201;SDS011;14717;46.924;15.474;2023-02-02T08:46:09;6.47;;;3.15;;
27201;SDS011;14717;46.924;15.474;2023-02-02T08:48:36;8.50;;;3.55;;
27201;SDS011;14717;46.924;15.474;2023-02-02T08:51:02;7.07;;;3.13;;
27201;SDS011;14717;46.924;15.474;2023-02-02T08:55:57;6.47;;;2.83;;
27201;SDS011;14717;46.924;15.474;2023-02-02T08:58:32;6.55;;;2.97;;
27201;SDS011;14717;46.924;15.474;2023-02-02T09:01:05;6.85;;;3.00;;
27201;SDS011;14717;46.924;15.474;2023-02-02T09:03:38;6.55;;;3.67;;
27201;SDS011;14717;46.924;15.474;2023-02-02T09:06:08;8.38;;;3.47;;
27201;SDS011;14717;46.924;15.474;2023-02-02T09:08:35;9.27;;;3.88;;
27201;SDS011;14717;46.924;15.474;2023-02-02T09:11:02;7.93;;;3.17;;
27201;SDS011;14717;46.924;15.474;2023-02-02T09:13:37;6.60;;;3.17;;
27201;SDS011;14717;46.924;15.474;2023-02-02T09:16:04;6.57;;;3.03;;
27201;SDS011;14717;46.924;15.474;2023-02-02T09:18:32;6.15;;;2.83;;
27201;SDS011;14717;46.924;15.474;2023-02-02T09:21:01;6.65;;;3.00;;
27201;SDS011;14717;46.924;15.474;2023-02-02T09:23:29;6.63;;;2.92;;
27201;SDS011;14717;46.924;15.474;2023-02-02T09:25:56;5.72;;;2.70;;
27201;SDS011;14717;46.924;15.474;2023-02-02T09:28:21;5.07;;;2.67;;
27201;SDS011;14717;46.924;15.474;2023-02-02T09:30:46;5.05;;;2.80;;
27201;SDS011;14717;46.924;15.474;2023-02-02T09:33:12;6.38;;;2.72;;
27201;SDS011;14717;46.924;15.474;2023-02-02T09:35:37;6.85;;;2.83;;
27201;SDS011;14717;46.924;15.474;2023-02-02T09:38:03;5.38;;;2.63;;
27201;SDS011;14717;46.924;15.474;2023-02-02T09:40:29;6.47;;;3.00;;
27201;SDS011;14717;46.924;15.474;2023-02-02T09:43:05;5.18;;;2.88;;
27201;SDS011;14717;46.924;15.474;2023-02-02T09:50:58;6.40;;;3.22;;
27201;SDS011;14717;46.924;15.474;2023-02-02T09:56:07;6.40;;;2.80;;
27201;SDS011;14717;46.924;15.474;2023-02-02T09:59:04;5.93;;;3.03;;
27201;SDS011;14717;46.924;15.474;2023-02-02T10:01:34;7.15;;;3.38;;
27201;SDS011;14717;46.924;15.474;2023-02-02T10:06:44;7.15;;;3.15;;
27201;SDS011;14717;46.924;15.474;2023-02-02T10:20:50;8.13;;;2.80;;
27201;SDS011;14717;46.924;15.474;2023-02-02T10:26:00;6.30;;;2.80;;
27201;SDS011;14717;46.924;15.474;2023-02-02T10:31:41;4.10;;;2.45;;
27201;SDS011;14717;46.924;15.474;2023-02-02T10:34:32;6.03;;;2.70;;
27201;SDS011;14717;46.924;15.474;2023-02-02T10:41:37;6.07;;;2.85;;
27201;SDS011;14717;46.924;15.474;2023-02-02T10:46:34;4.75;;;2.60;;
27201;SDS011;14717;46.924;15.474;2023-02-02T10:49:14;9.73;;;2.47;;
27201;SDS011;14717;46.924;15.474;2023-02-02T10:57:04;4.50;;;2.35;;
27201;SDS011;14717;46.924;15.474;2023-02-02T10:59:37;5.53;;;2.70;;
27201;SDS011;14717;46.924;15.474;2023-02-02T11:02:25;7.10;;;3.15;;
27201;SDS011;14717;46.924;15.474;2023-02-02T11:04:51;5.13;;;2.42;;
27201;SDS011;14717;46.924;15.474;2023-02-02T11:07:35;4.25;;;2.15;;
27201;SDS011;14717;46.924;15.474;2023-02-02T11:10:00;3.67;;;2.47;;
27201;SDS011;14717;46.924;15.474;2023-02-02T11:12:27;4.18;;;2.38;;
27201;SDS011;14717;46.924;15.474;2023-02-02T11:15:02;4.68;;;2.80;;
27201;SDS011;14717;46.924;15.474;2023-02-02T11:17:29;6.53;;;2.67;;
27201;SDS011;14717;46.924;15.474;2023-02-02T11:19:55;5.95;;;2.88;;
27201;SDS011;14717;46.924;15.474;2023-02-02T11:24:56;5.65;;;3.15;;
27201;SDS011;14717;46.924;15.474;2023-02-02T11:27:33;5.22;;;2.60;;
27201;SDS011;14717;46.924;15.474;2023-02-02T11:30:09;7.15;;;2.75;;
27201;SDS011;14717;46.924;15.474;2023-02-02T11:32:41;3.92;;;2.30;;
27201;SDS011;14717;46.924;15.474;2023-02-02T11:37:38;4.50;;;2.27;;
27201;SDS011;14717;46.924;15.474;2023-02-02T11:40:31;6.25;;;2.53;;
27201;SDS011;14717;46.924;15.474;2023-02-02T11:43:00;4.35;;;2.67;;
27201;SDS011;14717;46.924;15.474;2023-02-02T11:48:04;6.28;;;2.22;;
27201;SDS011;14717;46.924;15.474;2023-02-02T11:50:36;3.78;;;2.00;;
27201;SDS011;14717;46.924;15.474;2023-02-02T11:53:03;4.15;;;1.58;;
27201;SDS011;14717;46.924;15.474;2023-02-02T11:55:29;3.58;;;1.60;;
27201;SDS011;14717;46.924;15.474;2023-02-02T11:58:08;3.85;;;2.20;;
27201;SDS011;14717;46.924;15.474;2023-02-02T12:00:45;2.85;;;1.77;;
27201;SDS011;14717;46.924;15.474;2023-02-02T12:03:25;4.47;;;2.10;;
27201;SDS011;14717;46.924;15.474;2023-02-02T12:05:51;4.57;;;2.13;;
27201;SDS011;14717;46.924;15.474;2023-02-02T12:08:16;5.03;;;2.03;;
27201;SDS011;14717;46.924;15.474;2023-02-02T12:11:00;3.15;;;1.80;;
27201;SDS011;14717;46.924;15.474;2023-02-02T12:22:01;4.65;;;1.77;;
27201;SDS011;14717;46.924;15.474;2023-02-02T12:24:33;3.92;;;1.90;;
27201;SDS011;14717;46.924;15.474;2023-02-02T12:35:40;3.17;;;2.00;;
27201;SDS011;14717;46.924;15.474;2023-02-02T12:41:29;2.53;;;1.40;;
27201;SDS011;14717;46.924;15.474;2023-02-02T12:53:17;3.55;;;2.00;;
27201;SDS011;14717;46.924;15.474;2023-02-02T12:58:52;3.50;;;1.88;;
27201;SDS011;14717;46.924;15.474;2023-02-02T13:07:15;3.70;;;1.88;;
27201;SDS011;14717;46.924;15.474;2023-02-02T13:12:25;2.40;;;1.50;;
27201;SDS011;14717;46.924;15.474;2023-02-02T13:14:53;2.92;;;1.50;;
27201;SDS011;14717;46.924;15.474;2023-02-02T13:17:28;2.30;;;1.42;;
27201;SDS011;14717;46.924;15.474;2023-02-02T13:19:59;4.75;;;1.88;;
27201;SDS011;14717;46.924;15.474;2023-02-02T13:22:40;3.30;;;1.70;;
27201;SDS011;14717;46.924;15.474;2023-02-02T13:25:12;4.22;;;1.90;;
27201;SDS011;14717;46.924;15.474;2023-02-02T13:27:43;3.40;;;1.58;;
27201;SDS011;14717;46.924;15.474;2023-02-02T13:30:21;2.85;;;1.50;;
27201;SDS011;14717;46.924;15.474;2023-02-02T13:33:19;3.33;;;1.80;;
27201;SDS011;14717;46.924;15.474;2023-02-02T13:35:52;4.72;;;2.47;;
27201;SDS011;14717;46.924;15.474;2023-02-02T13:38:23;5.10;;;2.95;;
27201;SDS011;14717;46.924;15.474;2023-02-02T13:40:51;5.03;;;2.50;;
27201;SDS011;14717;46.924;15.474;2023-02-02T13:46:28;4.30;;;2.67;;
27201;SDS011;14717;46.924;15.474;2023-02-02T13:54:45;3.70;;;2.10;;
27201;SDS011;14717;46.924;15.474;2023-02-02T14:00:24;2.72;;;1.50;;
27201;SDS011;14717;46.924;15.474;2023-02-02T14:03:01;5.93;;;1.55;;
27201;SDS011;14717;46.924;15.474;2023-02-02T14:05:30;2.53;;;1.45;;
27201;SDS011;14717;46.924;15.474;2023-02-02T14:08:05;2.35;;;1.20;;
27201;SDS011;14717;46.924;15.474;2023-02-02T14:10:43;2.80;;;1.45;;
27201;SDS011;14717;46.924;15.474;2023-02-02T14:13:22;2.60;;;1.60;;
27201;SDS011;14717;46.924;15.474;2023-02-02T14:16:20;3.50;;;1.50;;
27201;SDS011;14717;46.924;15.474;2023-02-02T14:19:16;1.77;;;1.23;;
27201;SDS011;14717;46.924;15.474;2023-02-02T14:34:51;4.80;;;2.50;;
27201;SDS011;14717;46.924;15.474;2023-02-02T14:47:53;5.20;;;3.55;;
27201;SDS011;14717;46.924;15.474;2023-02-02T14:50:26;5.97;;;3.70;;
27201;SDS011;14717;46.924;15.474;2023-02-02T14:53:05;6.55;;;4.50;;
27201;SDS011;14717;46.924;15.474;2023-02-02T14:55:50;5.55;;;3.40;;
27201;SDS011;14717;46.924;15.474;2023-02-02T14:58:33;8.77;;;3.75;;
27201;SDS011;14717;46.924;15.474;2023-02-02T15:03:34;5.60;;;3.40;;
27201;SDS011;14717;46.924;15.474;2023-02-02T15:14:36;4.32;;;2.67;;
27201;SDS011;14717;46.924;15.474;2023-02-02T15:25:32;5.03;;;2.70;;
27201;SDS011;14717;46.924;15.474;2023-02-02T15:28:19;6.47;;;3.08;;
27201;SDS011;14717;46.924;15.474;2023-02-02T15:30:50;4.70;;;2.42;;
27201;SDS011;14717;46.924;15.474;2023-02-02T15:35:56;6.50;;;2.90;;
27201;SDS011;14717;46.924;15.474;2023-02-02T15:38:23;5.93;;;2.97;;
27201;SDS011;14717;46.924;15.474;2023-02-02T15:41:02;4.55;;;2.67;;
27201;SDS011;14717;46.924;15.474;2023-02-02T15:43:29;3.63;;;2.30;;
27201;SDS011;14717;46.924;15.474;2023-02-02T15:45:59;4.32;;;2.42;;
27201;SDS011;14717;46.924;15.474;2023-02-02T15:48:29;4.68;;;2.20;;
27201;SDS011;14717;46.924;15.474;2023-02-02T15:50:58;5.50;;;2.67;;
27201;SDS011;14717;46.924;15.474;2023-02-02T15:56:20;6.00;;;2.40;;
27201;SDS011;14717;46.924;15.474;2023-02-02T15:58:54;5.05;;;1.98;;
27201;SDS011;14717;46.924;15.474;2023-02-02T16:01:22;6.35;;;2.55;;
27201;SDS011;14717;46.924;15.474;2023-02-02T16:03:59;5.07;;;2.10;;
27201;SDS011;14717;46.924;15.474;2023-02-02T16:06:37;5.63;;;2.28;;
27201;SDS011;14717;46.924;15.474;2023-02-02T16:09:03;3.90;;;2.17;;
27201;SDS011;14717;46.924;15.474;2023-02-02T16:11:29;3.45;;;1.85;;
27201;SDS011;14717;46.924;15.474;2023-02-02T16:14:03;6.03;;;1.92;;
27201;SDS011;14717;46.924;15.474;2023-02-02T16:16:37;5.13;;;1.95;;
27201;SDS011;14717;46.924;15.474;2023-02-02T16:19:05;3.67;;;2.13;;
27201;SDS011;14717;46.924;15.474;2023-02-02T16:21:36;2.90;;;1.60;;
27201;SDS011;14717;46.924;15.474;2023-02-02T16:24:10;4.93;;;2.10;;
27201;SDS011;14717;46.924;15.474;2023-02-02T16:26:43;3.15;;;1.60;;
27201;SDS011;14717;46.924;15.474;2023-02-02T16:29:11;6.40;;;1.70;;
27201;SDS011;14717;46.924;15.474;2023-02-02T16:31:46;2.90;;;1.75;;
27201;SDS011;14717;46.924;15.474;2023-02-02T16:34:16;4.57;;;1.65;;
27201;SDS011;14717;46.924;15.474;2023-02-02T16:42:28;2.67;;;1.77;;
27201;SDS011;14717;46.924;15.474;2023-02-02T16:44:55;3.05;;;1.50;;
27201;SDS011;14717;46.924;15.474;2023-02-02T16:49:52;3.55;;;1.80;;
27201;SDS011;14717;46.924;15.474;2023-02-02T16:52:19;4.93;;;1.70;;
27201;SDS011;14717;46.924;15.474;2023-02-02T16:54:52;3.63;;;1.50;;
27201;SDS011;14717;46.924;15.474;2023-02-02T16:57:27;4.68;;;2.45;;
27201;SDS011;14717;46.924;15.474;2023-02-02T16:59:56;2.80;;;1.50;;
27201;SDS011;14717;46.924;15.474;2023-02-02T17:04:56;2.92;;;1.80;;
27201;SDS011;14717;46.924;15.474;2023-02-02T17:07:27;5.05;;;3.28;;
27201;SDS011;14717;46.924;15.474;2023-02-02T17:12:45;4.28;;;1.70;;
27201;SDS011;14717;46.924;15.474;2023-02-02T17:17:42;2.88;;;1.40;;
27201;SDS011;14717;46.924;15.474;2023-02-02T17:20:09;5.00;;;2.38;;
27201;SDS011;14717;46.924;15.474;2023-02-02T17:22:45;5.05;;;2.33;;
27201;SDS011;14717;46.924;15.474;2023-02-02T17:25:14;6.15;;;2.25;;
27201;SDS011;14717;46.924;15.474;2023-02-02T17:27:42;4.60;;;2.47;;
27201;SDS011;14717;46.924;15.474;2023-02-02T17:32:37;2.92;;;1.83;;
27201;SDS011;14717;46.924;15.474;2023-02-02T17:35:06;4.82;;;1.70;;
27201;SDS011;14717;46.924;15.474;2023-02-02T17:37:39;4.97;;;2.20;;
27201;SDS011;14717;46.924;15.474;2023-02-02T17:40:04;4.00;;;2.10;;
27201;SDS011;14717;46.924;15.474;2023-02-02T17:42:30;6.53;;;2.72;;
27201;SDS011;14717;46.924;15.474;2023-02-02T17:44:56;4.88;;;2.40;;
27201;SDS011;14717;46.924;15.474;2023-02-02T17:47:21;3.25;;;2.08;;
27201;SDS011;14717;46.924;15.474;2023-02-02T17:49:47;5.28;;;3.10;;
27201;SDS011;14717;46.924;15.474;2023-02-02T17:52:12;6.28;;;1.90;;
27201;SDS011;14717;46.924;15.474;2023-02-02T17:54:37;3.95;;;2.15;;
27201;SDS011;14717;46.924;15.474;2023-02-02T17:57:03;2.65;;;1.42;;
27201;SDS011;14717;46.924;15.474;2023-02-02T17:59:29;3.80;;;1.65;;
27201;SDS011;14717;46.924;15.474;2023-02-02T18:01:54;5.35;;;1.90;;
27201;SDS011;14717;46.924;15.474;2023-02-02T18:04:23;4.60;;;1.80;;
27201;SDS011;14717;46.924;15.474;2023-02-02T18:06:51;3.20;;;1.75;;
27201;SDS011;14717;46.924;15.474;2023-02-02T18:09:16;3.80;;;1.85;;
27201;SDS011;14717;46.924;15.474;2023-02-02T18:11:42;3.38;;;1.30;;
27201;SDS011;14717;46.924;15.474;2023-02-02T18:14:12;2.90;;;1.40;;
27201;SDS011;14717;46.924;15.474;2023-02-02T18:16:37;1.92;;;1.35;;